sensor_id;sensor_type;location;lat;lon;timestamp;P1;durP1;ratioP1;P2;durP2;ratioP2
18142;SDS011;9197;50.930;3.140;2023-04-01T00:00:36;15.77;;;7.60;;
18142;SDS011;9197;50.930;3.140;2023-04-01T00:03:04;12.13;;;7.27;;
18142;SDS011;9197;50.930;3.140;2023-04-01T00:05:33;22.27;;;8.60;;
18142;SDS011;9197;50.930;3.140;2023-04-01T00:08:00;14.50;;;7.43;;
18142;SDS011;9197;50.930;3.140;2023-04-01T00:10:28;20.73;;;7.50;;
18142;SDS011;9197;50.930;3.140;2023-04-01T00:12:55;16.80;;;7.90;;
18142;SDS011;9197;50.930;3.140;2023-04-01T00:15:23;21.80;;;8.43;;
18142;SDS011;9197;50.930;3.140;2023-04-01T00:17:50;16.70;;;7.73;;
18142;SDS011;9197;50.930;3.140;2023-04-01T00:20:17;22.20;;;7.50;;
18142;SDS011;9197;50.930;3.140;2023-04-01T00:22:46;22.07;;;9.03;;
18142;SDS011;9197;50.930;3.140;2023-04-01T00:25:14;20.60;;;9.03;;
18142;SDS011;9197;50.930;3.140;2023-04-01T00:27:41;19.03;;;8.70;;
18142;SDS011;9197;50.930;3.140;2023-04-01T00:30:09;24.27;;;9.97;;
18142;SDS011;9197;50.930;3.140;2023-04-01T00:32:36;17.90;;;7.80;;
18142;SDS011;9197;50.930;3.140;2023-04-01T00:35:04;15.03;;;7.30;;
18142;SDS011;9197;50.930;3.140;2023-04-01T00:37:34;16.27;;;7.73;;
18142;SDS011;9197;50.930;3.140;2023-04-01T00:40:03;16.73;;;6.80;;
18142;SDS011;9197;50.930;3.140;2023-04-01T00:42:31;15.67;;;6.00;;
18142;SDS011;9197;50.930;3.140;2023-04-01T00:44:58;13.53;;;6.07;;
18142;SDS011;9197;50.930;3.140;2023-04-01T00:47:46;16.77;;;7.87;;
18142;SDS011;9197;50.930;3.140;2023-04-01T00:50:13;18.83;;;8.00;;
18142;SDS011;9197;50.930;3.140;2023-04-01T00:52:40;25.97;;;10.53;;
18142;SDS011;9197;50.930;3.140;2023-04-01T00:55:09;22.70;;;10.27;;
18142;SDS011;9197;50.930;3.140;2023-04-01T00:57:37;19.87;;;9.23;;
18142;SDS011;9197;50.930;3.140;2023-04-01T01:00:09;20.67;;;7.93;;
18142;SDS011;9197;50.930;3.140;2023-04-01T01:02:37;23.27;;;8.87;;
18142;SDS011;9197;50.930;3.140;2023-04-01T01:05:05;18.40;;;8.73;;
18142;SDS011;9197;50.930;3.140;2023-04-01T01:07:35;28.07;;;9.10;;
18142;SDS011;9197;50.930;3.140;2023-04-01T01:10:03;22.20;;;8.83;;
18142;SDS011;9197;50.930;3.140;2023-04-01T01:12:38;24.30;;;10.10;;
18142;SDS011;9197;50.930;3.140;2023-04-01T01:15:09;20.33;;;9.20;;
18142;SDS011;9197;50.930;3.140;2023-04-01T01:17:42;18.20;;;8.30;;
18142;SDS011;9197;50.930;3.140;2023-04-01T01:20:29;20.73;;;9.00;;
18142;SDS011;9197;50.930;3.140;2023-04-01T01:23:04;22.40;;;8.30;;
18142;SDS011;9197;50.930;3.140;2023-04-01T01:25:38;21.47;;;8.30;;
18142;SDS011;9197;50.930;3.140;2023-04-01T01:28:14;20.37;;;8.00;;
18142;SDS011;9197;50.930;3.140;2023-04-01T01:30:48;19.90;;;7.63;;
18142;SDS011;9197;50.930;3.140;2023-04-01T01:36:06;17.00;;;6.93;;
18142;SDS011;9197;50.930;3.140;2023-04-01T01:38:36;24.50;;;7.37;;
18142;SDS011;9197;50.930;3.140;2023-04-01T01:41:05;26.50;;;7.33;;
18142;SDS011;9197;50.930;3.140;2023-04-01T01:43:35;13.00;;;7.10;;
18142;SDS011;9197;50.930;3.140;2023-04-01T01:46:04;15.70;;;6.70;;
18142;SDS011;9197;50.930;3.140;2023-04-01T01:48:33;24.70;;;8.33;;
18142;SDS011;9197;50.930;3.140;2023-04-01T01:51:01;22.20;;;6.97;;
18142;SDS011;9197;50.930;3.140;2023-04-01T01:53:30;25.87;;;7.30;;
18142;SDS011;9197;50.930;3.140;2023-04-01T01:55:57;13.67;;;6.67;;
18142;SDS011;9197;50.930;3.140;2023-04-01T01:58:27;17.40;;;7.60;;
18142;SDS011;9197;50.930;3.140;2023-04-01T02:00:56;16.47;;;8.47;;
18142;SDS011;9197;50.930;3.140;2023-04-01T02:03:24;20.83;;;7.90;;
18142;SDS011;9197;50.930;3.140;2023-04-01T02:05:53;20.43;;;7.77;;
18142;SDS011;9197;50.930;3.140;2023-04-01T02:08:21;14.23;;;7.67;;
18142;SDS011;9197;50.930;3.140;2023-04-01T02:10:52;12.63;;;7.67;;
18142;SDS011;9197;50.930;3.140;2023-04-01T02:13:24;17.37;;;7.17;;
18142;SDS011;9197;50.930;3.140;2023-04-01T02:15:53;17.70;;;6.73;;
18142;SDS011;9197;50.930;3.140;2023-04-01T02:18:22;14.23;;;6.10;;
18142;SDS011;9197;50.930;3.140;2023-04-01T02:20:49;21.73;;;7.57;;
18142;SDS011;9197;50.930;3.140;2023-04-01T02:23:17;12.93;;;6.50;;
18142;SDS011;9197;50.930;3.140;2023-04-01T02:25:45;14.53;;;5.57;;
18142;SDS011;9197;50.930;3.140;2023-04-01T02:28:14;16.50;;;6.43;;
18142;SDS011;9197;50.930;3.140;2023-04-01T02:30:44;19.63;;;6.07;;
18142;SDS011;9197;50.930;3.140;2023-04-01T02:33:12;13.53;;;6.30;;
18142;SDS011;9197;50.930;3.140;2023-04-01T02:35:40;12.00;;;5.63;;
18142;SDS011;9197;50.930;3.140;2023-04-01T02:38:07;13.53;;;6.13;;
18142;SDS011;9197;50.930;3.140;2023-04-01T02:40:45;15.63;;;6.23;;
18142;SDS011;9197;50.930;3.140;2023-04-01T02:43:14;13.90;;;7.27;;
18142;SDS011;9197;50.930;3.140;2023-04-01T02:45:42;13.97;;;7.47;;
18142;SDS011;9197;50.930;3.140;2023-04-01T02:48:09;12.43;;;6.73;;
18142;SDS011;9197;50.930;3.140;2023-04-01T02:50:38;16.03;;;9.33;;
18142;SDS011;9197;50.930;3.140;2023-04-01T02:53:05;15.00;;;9.00;;
18142;SDS011;9197;50.930;3.140;2023-04-01T02:55:32;20.10;;;8.80;;
18142;SDS011;9197;50.930;3.140;2023-04-01T02:58:00;16.43;;;9.03;;
18142;SDS011;9197;50.930;3.140;2023-04-01T03:00:29;20.87;;;9.90;;
18142;SDS011;9197;50.930;3.140;2023-04-01T03:02:56;15.60;;;9.83;;
18142;SDS011;9197;50.930;3.140;2023-04-01T03:05:24;15.43;;;9.53;;
18142;SDS011;9197;50.930;3.140;2023-04-01T03:07:51;20.57;;;9.30;;
18142;SDS011;9197;50.930;3.140;2023-04-01T03:10:19;17.30;;;9.57;;
18142;SDS011;9197;50.930;3.140;2023-04-01T03:12:46;18.00;;;9.43;;
18142;SDS011;9197;50.930;3.140;2023-04-01T03:15:13;15.23;;;10.83;;
18142;SDS011;9197;50.930;3.140;2023-04-01T03:17:42;21.83;;;11.00;;
18142;SDS011;9197;50.930;3.140;2023-04-01T03:20:12;19.80;;;10.87;;
18142;SDS011;9197;50.930;3.140;2023-04-01T03:22:40;23.23;;;12.87;;
18142;SDS011;9197;50.930;3.140;2023-04-01T03:25:07;16.53;;;10.27;;
18142;SDS011;9197;50.930;3.140;2023-04-01T03:27:35;17.57;;;9.40;;
18142;SDS011;9197;50.930;3.140;2023-04-01T03:30:03;19.17;;;10.23;;
18142;SDS011;9197;50.930;3.140;2023-04-01T03:32:30;15.23;;;9.83;;
18142;SDS011;9197;50.930;3.140;2023-04-01T03:34:59;19.97;;;9.97;;
18142;SDS011;9197;50.930;3.140;2023-04-01T03:37:27;17.63;;;10.73;;
18142;SDS011;9197;50.930;3.140;2023-04-01T03:39:54;24.70;;;11.50;;
18142;SDS011;9197;50.930;3.140;2023-04-01T03:42:21;21.37;;;10.70;;
18142;SDS011;9197;50.930;3.140;2023-04-01T03:44:49;24.67;;;11.50;;
18142;SDS011;9197;50.930;3.140;2023-04-01T03:47:16;23.13;;;12.50;;
18142;SDS011;9197;50.930;3.140;2023-04-01T03:49:43;20.37;;;11.27;;
18142;SDS011;9197;50.930;3.140;2023-04-01T03:52:12;23.23;;;11.20;;
18142;SDS011;9197;50.930;3.140;2023-04-01T03:54:39;19.47;;;11.80;;
18142;SDS011;9197;50.930;3.140;2023-04-01T03:57:07;20.50;;;12.37;;
18142;SDS011;9197;50.930;3.140;2023-04-01T03:59:34;21.37;;;11.37;;
18142;SDS011;9197;50.930;3.140;2023-04-01T04:02:02;20.10;;;11.13;;
18142;SDS011;9197;50.930;3.140;2023-04-01T04:04:30;21.40;;;10.63;;
18142;SDS011;9197;50.930;3.140;2023-04-01T04:06:57;18.23;;;10.97;;
18142;SDS011;9197;50.930;3.140;2023-04-01T04:09:26;17.83;;;9.87;;
18142;SDS011;9197;50.930;3.140;2023-04-01T04:11:53;19.17;;;10.63;;
18142;SDS011;9197;50.930;3.140;2023-04-01T04:14:22;17.77;;;10.83;;
18142;SDS011;9197;50.930;3.140;2023-04-01T04:16:49;21.00;;;11.40;;
18142;SDS011;9197;50.930;3.140;2023-04-01T04:19:17;25.43;;;10.90;;
18142;SDS011;9197;50.930;3.140;2023-04-01T04:21:44;19.53;;;9.67;;
18142;SDS011;9197;50.930;3.140;2023-04-01T04:24:11;18.37;;;10.87;;
18142;SDS011;9197;50.930;3.140;2023-04-01T04:26:40;12.63;;;8.63;;
18142;SDS011;9197;50.930;3.140;2023-04-01T04:29:08;14.97;;;9.40;;
18142;SDS011;9197;50.930;3.140;2023-04-01T04:31:35;15.40;;;9.83;;
18142;SDS011;9197;50.930;3.140;2023-04-01T04:34:02;15.40;;;10.27;;
18142;SDS011;9197;50.930;3.140;2023-04-01T04:36:30;17.10;;;10.47;;
18142;SDS011;9197;50.930;3.140;2023-04-01T04:38:57;20.80;;;9.83;;
18142;SDS011;9197;50.930;3.140;2023-04-01T04:41:27;14.20;;;9.23;;
18142;SDS011;9197;50.930;3.140;2023-04-01T04:43:55;15.53;;;9.63;;
18142;SDS011;9197;50.930;3.140;2023-04-01T04:46:24;13.03;;;9.03;;
18142;SDS011;9197;50.930;3.140;2023-04-01T04:48:51;11.30;;;8.20;;
18142;SDS011;9197;50.930;3.140;2023-04-01T04:51:19;17.13;;;8.83;;
18142;SDS011;9197;50.930;3.140;2023-04-01T04:53:47;15.47;;;7.53;;
18142;SDS011;9197;50.930;3.140;2023-04-01T04:56:17;12.13;;;8.50;;
18142;SDS011;9197;50.930;3.140;2023-04-01T04:58:44;17.40;;;10.50;;
18142;SDS011;9197;50.930;3.140;2023-04-01T05:01:14;15.93;;;10.20;;
18142;SDS011;9197;50.930;3.140;2023-04-01T05:03:41;17.73;;;9.43;;
18142;SDS011;9197;50.930;3.140;2023-04-01T05:06:10;15.00;;;9.67;;
18142;SDS011;9197;50.930;3.140;2023-04-01T05:08:37;14.83;;;9.00;;
18142;SDS011;9197;50.930;3.140;2023-04-01T05:11:06;13.90;;;9.33;;
18142;SDS011;9197;50.930;3.140;2023-04-01T05:13:34;14.40;;;9.20;;
18142;SDS011;9197;50.930;3.140;2023-04-01T05:16:02;12.03;;;8.87;;
18142;SDS011;9197;50.930;3.140;2023-04-01T05:18:31;14.83;;;8.60;;
18142;SDS011;9197;50.930;3.140;2023-04-01T05:20:58;13.20;;;9.43;;
18142;SDS011;9197;50.930;3.140;2023-04-01T05:23:25;13.37;;;8.20;;
18142;SDS011;9197;50.930;3.140;2023-04-01T05:25:53;14.37;;;8.80;;
18142;SDS011;9197;50.930;3.140;2023-04-01T05:28:22;15.23;;;8.50;;
18142;SDS011;9197;50.930;3.140;2023-04-01T05:30:49;14.70;;;8.80;;
18142;SDS011;9197;50.930;3.140;2023-04-01T05:33:16;14.17;;;8.70;;
18142;SDS011;9197;50.930;3.140;2023-04-01T05:35:45;12.40;;;8.80;;
18142;SDS011;9197;50.930;3.140;2023-04-01T05:38:13;13.93;;;8.53;;
18142;SDS011;9197;50.930;3.140;2023-04-01T05:40:40;16.23;;;8.70;;
18142;SDS011;9197;50.930;3.140;2023-04-01T05:43:07;14.13;;;8.57;;
18142;SDS011;9197;50.930;3.140;2023-04-01T05:45:35;13.93;;;8.63;;
18142;SDS011;9197;50.930;3.140;2023-04-01T05:48:02;11.87;;;7.53;;
18142;SDS011;9197;50.930;3.140;2023-04-01T05:50:30;15.17;;;7.77;;
18142;SDS011;9197;50.930;3.140;2023-04-01T05:52:59;12.60;;;8.43;;
18142;SDS011;9197;50.930;3.140;2023-04-01T05:55:26;13.53;;;9.13;;
18142;SDS011;9197;50.930;3.140;2023-04-01T05:57:53;15.07;;;8.70;;
18142;SDS011;9197;50.930;3.140;2023-04-01T06:00:21;12.77;;;8.60;;
18142;SDS011;9197;50.930;3.140;2023-04-01T06:02:48;9.67;;;7.70;;
18142;SDS011;9197;50.930;3.140;2023-04-01T06:05:18;11.30;;;7.50;;
18142;SDS011;9197;50.930;3.140;2023-04-01T06:07:45;12.53;;;8.07;;
18142;SDS011;9197;50.930;3.140;2023-04-01T06:10:15;13.30;;;6.63;;
18142;SDS011;9197;50.930;3.140;2023-04-01T06:12:51;10.93;;;7.23;;
18142;SDS011;9197;50.930;3.140;2023-04-01T06:15:23;12.73;;;7.00;;
18142;SDS011;9197;50.930;3.140;2023-04-01T06:18:02;13.77;;;7.80;;
18142;SDS011;9197;50.930;3.140;2023-04-01T06:20:33;14.37;;;7.47;;
18142;SDS011;9197;50.930;3.140;2023-04-01T06:23:05;10.90;;;8.40;;
18142;SDS011;9197;50.930;3.140;2023-04-01T06:25:38;10.80;;;8.77;;
18142;SDS011;9197;50.930;3.140;2023-04-01T06:31:00;8.27;;;6.10;;
18142;SDS011;9197;50.930;3.140;2023-04-01T06:33:34;8.03;;;6.33;;
18142;SDS011;9197;50.930;3.140;2023-04-01T06:36:06;10.30;;;6.33;;
18142;SDS011;9197;50.930;3.140;2023-04-01T06:38:41;6.63;;;5.50;;
18142;SDS011;9197;50.930;3.140;2023-04-01T06:41:16;7.10;;;5.40;;
18142;SDS011;9197;50.930;3.140;2023-04-01T06:43:50;9.60;;;7.03;;
18142;SDS011;9197;50.930;3.140;2023-04-01T06:46:23;8.93;;;5.67;;
18142;SDS011;9197;50.930;3.140;2023-04-01T06:49:02;5.90;;;5.30;;
18142;SDS011;9197;50.930;3.140;2023-04-01T06:51:33;6.17;;;5.40;;
18142;SDS011;9197;50.930;3.140;2023-04-01T06:54:04;6.07;;;3.63;;
18142;SDS011;9197;50.930;3.140;2023-04-01T06:56:34;7.43;;;3.57;;
18142;SDS011;9197;50.930;3.140;2023-04-01T06:59:04;6.90;;;3.03;;
18142;SDS011;9197;50.930;3.140;2023-04-01T07:01:33;8.37;;;3.97;;
18142;SDS011;9197;50.930;3.140;2023-04-01T07:04:04;7.70;;;3.50;;
18142;SDS011;9197;50.930;3.140;2023-04-01T07:06:33;5.23;;;3.80;;
18142;SDS011;9197;50.930;3.140;2023-04-01T07:09:03;4.70;;;3.13;;
18142;SDS011;9197;50.930;3.140;2023-04-01T07:11:32;7.10;;;3.77;;
18142;SDS011;9197;50.930;3.140;2023-04-01T07:14:03;4.60;;;3.33;;
18142;SDS011;9197;50.930;3.140;2023-04-01T07:16:32;5.53;;;4.00;;
18142;SDS011;9197;50.930;3.140;2023-04-01T07:19:01;6.13;;;4.10;;
18142;SDS011;9197;50.930;3.140;2023-04-01T07:21:30;4.97;;;4.10;;
18142;SDS011;9197;50.930;3.140;2023-04-01T07:24:02;5.47;;;3.37;;
18142;SDS011;9197;50.930;3.140;2023-04-01T07:26:31;6.60;;;3.43;;
18142;SDS011;9197;50.930;3.140;2023-04-01T07:28:58;6.37;;;3.83;;
18142;SDS011;9197;50.930;3.140;2023-04-01T07:31:31;5.13;;;3.60;;
18142;SDS011;9197;50.930;3.140;2023-04-01T07:34:03;4.23;;;3.93;;
18142;SDS011;9197;50.930;3.140;2023-04-01T07:36:33;5.60;;;4.47;;
18142;SDS011;9197;50.930;3.140;2023-04-01T07:39:06;5.20;;;4.57;;
18142;SDS011;9197;50.930;3.140;2023-04-01T07:41:38;5.03;;;4.50;;
18142;SDS011;9197;50.930;3.140;2023-04-01T07:44:09;7.13;;;4.43;;
18142;SDS011;9197;50.930;3.140;2023-04-01T07:46:50;6.30;;;4.40;;
18142;SDS011;9197;50.930;3.140;2023-04-01T07:49:22;4.67;;;4.13;;
18142;SDS011;9197;50.930;3.140;2023-04-01T07:51:54;7.37;;;3.67;;
18142;SDS011;9197;50.930;3.140;2023-04-01T07:54:26;6.50;;;4.53;;
18142;SDS011;9197;50.930;3.140;2023-04-01T07:56:57;5.60;;;3.53;;
18142;SDS011;9197;50.930;3.140;2023-04-01T07:59:29;6.17;;;3.70;;
18142;SDS011;9197;50.930;3.140;2023-04-01T08:02:01;5.50;;;4.43;;
18142;SDS011;9197;50.930;3.140;2023-04-01T08:04:37;5.97;;;3.87;;
18142;SDS011;9197;50.930;3.140;2023-04-01T08:07:09;4.70;;;4.13;;
18142;SDS011;9197;50.930;3.140;2023-04-01T08:09:39;6.83;;;3.60;;
18142;SDS011;9197;50.930;3.140;2023-04-01T08:12:13;6.03;;;3.87;;
18142;SDS011;9197;50.930;3.140;2023-04-01T08:14:44;6.20;;;3.43;;
18142;SDS011;9197;50.930;3.140;2023-04-01T08:17:16;6.87;;;3.53;;
18142;SDS011;9197;50.930;3.140;2023-04-01T08:19:51;4.40;;;3.57;;
18142;SDS011;9197;50.930;3.140;2023-04-01T08:22:23;6.07;;;3.70;;
18142;SDS011;9197;50.930;3.140;2023-04-01T08:24:52;9.73;;;3.50;;
18142;SDS011;9197;50.930;3.140;2023-04-01T08:27:23;6.37;;;4.03;;
18142;SDS011;9197;50.930;3.140;2023-04-01T08:29:52;5.60;;;3.60;;
18142;SDS011;9197;50.930;3.140;2023-04-01T08:32:25;5.30;;;3.47;;
18142;SDS011;9197;50.930;3.140;2023-04-01T08:34:55;6.53;;;3.23;;
18142;SDS011;9197;50.930;3.140;2023-04-01T08:37:26;5.30;;;3.27;;
18142;SDS011;9197;50.930;3.140;2023-04-01T08:39:55;6.40;;;3.10;;
18142;SDS011;9197;50.930;3.140;2023-04-01T08:42:31;5.57;;;3.20;;
18142;SDS011;9197;50.930;3.140;2023-04-01T08:45:10;4.60;;;3.37;;
18142;SDS011;9197;50.930;3.140;2023-04-01T08:47:52;5.40;;;2.80;;
18142;SDS011;9197;50.930;3.140;2023-04-01T08:53:09;3.33;;;2.33;;
18142;SDS011;9197;50.930;3.140;2023-04-01T08:55:47;4.53;;;2.60;;
18142;SDS011;9197;50.930;3.140;2023-04-01T08:58:32;7.03;;;2.70;;
18142;SDS011;9197;50.930;3.140;2023-04-01T09:01:10;4.17;;;2.87;;
18142;SDS011;9197;50.930;3.140;2023-04-01T09:03:43;3.80;;;2.63;;
18142;SDS011;9197;50.930;3.140;2023-04-01T09:06:29;5.13;;;2.20;;
18142;SDS011;9197;50.930;3.140;2023-04-01T09:11:44;5.30;;;2.27;;
18142;SDS011;9197;50.930;3.140;2023-04-01T09:14:27;4.30;;;1.83;;
18142;SDS011;9197;50.930;3.140;2023-04-01T09:17:09;7.77;;;4.10;;
18142;SDS011;9197;50.930;3.140;2023-04-01T09:19:45;6.43;;;2.40;;
18142;SDS011;9197;50.930;3.140;2023-04-01T09:28:00;4.47;;;2.17;;
18142;SDS011;9197;50.930;3.140;2023-04-01T09:30:31;3.30;;;2.20;;
18142;SDS011;9197;50.930;3.140;2023-04-01T09:35:45;6.40;;;2.50;;
18142;SDS011;9197;50.930;3.140;2023-04-01T09:40:59;4.60;;;1.80;;
18142;SDS011;9197;50.930;3.140;2023-04-01T09:43:30;2.07;;;1.17;;
18142;SDS011;9197;50.930;3.140;2023-04-01T09:46:11;1.30;;;1.00;;
18142;SDS011;9197;50.930;3.140;2023-04-01T09:51:39;2.23;;;0.90;;
18142;SDS011;9197;50.930;3.140;2023-04-01T09:54:13;2.63;;;1.37;;
18142;SDS011;9197;50.930;3.140;2023-04-01T09:56:52;1.90;;;1.33;;
18142;SDS011;9197;50.930;3.140;2023-04-01T10:02:20;4.17;;;1.57;;
18142;SDS011;9197;50.930;3.140;2023-04-01T10:05:06;1.03;;;0.83;;
18142;SDS011;9197;50.930;3.140;2023-04-01T10:10:33;2.00;;;1.40;;
18142;SDS011;9197;50.930;3.140;2023-04-01T10:13:14;2.43;;;1.20;;
18142;SDS011;9197;50.930;3.140;2023-04-01T10:15:59;2.03;;;1.13;;
18142;SDS011;9197;50.930;3.140;2023-04-01T10:18:41;1.33;;;1.10;;
18142;SDS011;9197;50.930;3.140;2023-04-01T10:21:16;3.83;;;1.40;;
18142;SDS011;9197;50.930;3.140;2023-04-01T10:26:44;1.70;;;1.40;;
18142;SDS011;9197;50.930;3.140;2023-04-01T10:32:09;2.33;;;1.30;;
18142;SDS011;9197;50.930;3.140;2023-04-01T10:34:53;1.70;;;1.13;;
18142;SDS011;9197;50.930;3.140;2023-04-01T10:37:32;1.90;;;1.33;;
18142;SDS011;9197;50.930;3.140;2023-04-01T10:40:19;2.20;;;1.23;;
18142;SDS011;9197;50.930;3.140;2023-04-01T10:51:16;0.90;;;0.77;;
18142;SDS011;9197;50.930;3.140;2023-04-01T10:53:49;1.77;;;0.90;;
18142;SDS011;9197;50.930;3.140;2023-04-01T10:56:36;1.40;;;0.90;;
18142;SDS011;9197;50.930;3.140;2023-04-01T10:59:20;1.33;;;1.10;;
18142;SDS011;9197;50.930;3.140;2023-04-01T11:02:06;1.07;;;0.93;;
18142;SDS011;9197;50.930;3.140;2023-04-01T11:04:52;3.27;;;1.07;;
18142;SDS011;9197;50.930;3.140;2023-04-01T11:07:37;2.33;;;1.40;;
18142;SDS011;9197;50.930;3.140;2023-04-01T11:15:48;2.47;;;0.80;;
18142;SDS011;9197;50.930;3.140;2023-04-01T11:18:48;2.93;;;1.00;;
18142;SDS011;9197;50.930;3.140;2023-04-01T11:21:28;0.80;;;0.70;;
18142;SDS011;9197;50.930;3.140;2023-04-01T11:24:06;1.33;;;0.50;;
18142;SDS011;9197;50.930;3.140;2023-04-01T11:26:40;1.53;;;1.20;;
18142;SDS011;9197;50.930;3.140;2023-04-01T11:29:16;1.10;;;0.90;;
18142;SDS011;9197;50.930;3.140;2023-04-01T11:31:47;0.97;;;0.93;;
18142;SDS011;9197;50.930;3.140;2023-04-01T11:34:24;2.93;;;1.13;;
18142;SDS011;9197;50.930;3.140;2023-04-01T11:36:58;1.40;;;1.00;;
18142;SDS011;9197;50.930;3.140;2023-04-01T11:39:32;2.80;;;1.27;;
18142;SDS011;9197;50.930;3.140;2023-04-01T11:42:04;1.83;;;1.17;;
18142;SDS011;9197;50.930;3.140;2023-04-01T11:44:37;1.10;;;0.80;;
18142;SDS011;9197;50.930;3.140;2023-04-01T11:47:14;3.30;;;1.20;;
18142;SDS011;9197;50.930;3.140;2023-04-01T11:49:45;2.60;;;0.90;;
18142;SDS011;9197;50.930;3.140;2023-04-01T11:52:17;1.63;;;1.00;;
18142;SDS011;9197;50.930;3.140;2023-04-01T11:57:42;3.20;;;1.30;;
18142;SDS011;9197;50.930;3.140;2023-04-01T12:03:02;2.30;;;1.10;;
18142;SDS011;9197;50.930;3.140;2023-04-01T12:05:35;1.80;;;0.90;;
18142;SDS011;9197;50.930;3.140;2023-04-01T12:08:10;3.37;;;0.60;;
18142;SDS011;9197;50.930;3.140;2023-04-01T12:10:44;1.83;;;1.07;;
18142;SDS011;9197;50.930;3.140;2023-04-01T12:13:20;1.27;;;0.60;;
18142;SDS011;9197;50.930;3.140;2023-04-01T12:15:55;0.80;;;0.60;;
18142;SDS011;9197;50.930;3.140;2023-04-01T12:18:26;0.90;;;0.80;;
18142;SDS011;9197;50.930;3.140;2023-04-01T12:21:00;0.63;;;0.60;;
18142;SDS011;9197;50.930;3.140;2023-04-01T12:23:35;0.93;;;0.60;;
18142;SDS011;9197;50.930;3.140;2023-04-01T12:26:12;1.43;;;0.60;;
18142;SDS011;9197;50.930;3.140;2023-04-01T12:28:48;0.60;;;0.50;;
18142;SDS011;9197;50.930;3.140;2023-04-01T12:31:26;0.50;;;0.50;;
18142;SDS011;9197;50.930;3.140;2023-04-01T12:33:57;1.43;;;0.80;;
18142;SDS011;9197;50.930;3.140;2023-04-01T12:36:32;1.17;;;0.80;;
18142;SDS011;9197;50.930;3.140;2023-04-01T12:39:11;1.13;;;0.70;;
18142;SDS011;9197;50.930;3.140;2023-04-01T12:41:45;0.70;;;0.70;;
18142;SDS011;9197;50.930;3.140;2023-04-01T12:44:19;1.07;;;0.87;;
18142;SDS011;9197;50.930;3.140;2023-04-01T12:46:56;1.23;;;0.87;;
18142;SDS011;9197;50.930;3.140;2023-04-01T12:49:44;1.63;;;1.23;;
18142;SDS011;9197;50.930;3.140;2023-04-01T12:52:18;0.90;;;0.90;;
18142;SDS011;9197;50.930;3.140;2023-04-01T12:55:06;2.20;;;1.30;;
18142;SDS011;9197;50.930;3.140;2023-04-01T12:57:41;3.00;;;1.43;;
18142;SDS011;9197;50.930;3.140;2023-04-01T13:00:15;1.00;;;0.90;;
18142;SDS011;9197;50.930;3.140;2023-04-01T13:02:52;1.10;;;1.00;;
18142;SDS011;9197;50.930;3.140;2023-04-01T13:05:26;2.50;;;1.13;;
18142;SDS011;9197;50.930;3.140;2023-04-01T13:08:13;3.83;;;1.33;;
18142;SDS011;9197;50.930;3.140;2023-04-01T13:10:50;2.40;;;1.17;;
18142;SDS011;9197;50.930;3.140;2023-04-01T13:16:08;2.07;;;0.90;;
18142;SDS011;9197;50.930;3.140;2023-04-01T13:18:39;0.67;;;0.50;;
18142;SDS011;9197;50.930;3.140;2023-04-01T13:21:12;1.80;;;0.70;;
18142;SDS011;9197;50.930;3.140;2023-04-01T13:23:49;2.40;;;1.00;;
18142;SDS011;9197;50.930;3.140;2023-04-01T13:26:22;2.53;;;1.10;;
18142;SDS011;9197;50.930;3.140;2023-04-01T13:28:52;1.43;;;0.80;;
18142;SDS011;9197;50.930;3.140;2023-04-01T13:31:26;2.17;;;0.80;;
18142;SDS011;9197;50.930;3.140;2023-04-01T13:33:59;2.00;;;1.07;;
18142;SDS011;9197;50.930;3.140;2023-04-01T13:36:28;1.47;;;1.30;;
18142;SDS011;9197;50.930;3.140;2023-04-01T13:39:04;1.90;;;0.90;;
18142;SDS011;9197;50.930;3.140;2023-04-01T13:41:41;1.27;;;0.90;;
18142;SDS011;9197;50.930;3.140;2023-04-01T13:44:16;1.40;;;0.73;;
18142;SDS011;9197;50.930;3.140;2023-04-01T13:46:51;4.80;;;1.20;;
18142;SDS011;9197;50.930;3.140;2023-04-01T13:54:59;1.53;;;0.87;;
18142;SDS011;9197;50.930;3.140;2023-04-01T13:57:43;4.20;;;0.97;;
18142;SDS011;9197;50.930;3.140;2023-04-01T14:00:17;4.23;;;0.93;;
18142;SDS011;9197;50.930;3.140;2023-04-01T14:03:12;1.63;;;0.90;;
18142;SDS011;9197;50.930;3.140;2023-04-01T14:11:18;1.93;;;1.10;;
18142;SDS011;9197;50.930;3.140;2023-04-01T14:13:51;2.23;;;1.20;;
18142;SDS011;9197;50.930;3.140;2023-04-01T14:16:25;2.93;;;1.40;;
18142;SDS011;9197;50.930;3.140;2023-04-01T14:19:02;1.43;;;1.30;;
18142;SDS011;9197;50.930;3.140;2023-04-01T14:21:33;1.57;;;1.00;;
18142;SDS011;9197;50.930;3.140;2023-04-01T14:24:04;4.30;;;2.27;;
18142;SDS011;9197;50.930;3.140;2023-04-01T14:26:44;1.50;;;1.10;;
18142;SDS011;9197;50.930;3.140;2023-04-01T14:29:19;5.53;;;1.50;;
18142;SDS011;9197;50.930;3.140;2023-04-01T14:31:54;3.40;;;1.23;;
18142;SDS011;9197;50.930;3.140;2023-04-01T14:34:32;4.83;;;1.33;;
18142;SDS011;9197;50.930;3.140;2023-04-01T14:37:13;2.10;;;1.30;;
18142;SDS011;9197;50.930;3.140;2023-04-01T14:39:43;1.90;;;1.17;;
18142;SDS011;9197;50.930;3.140;2023-04-01T14:42:23;3.37;;;0.90;;
18142;SDS011;9197;50.930;3.140;2023-04-01T14:45:08;1.80;;;0.90;;
18142;SDS011;9197;50.930;3.140;2023-04-01T14:47:48;2.37;;;1.10;;
18142;SDS011;9197;50.930;3.140;2023-04-01T14:50:21;2.93;;;1.27;;
18142;SDS011;9197;50.930;3.140;2023-04-01T14:52:55;2.50;;;0.90;;
18142;SDS011;9197;50.930;3.140;2023-04-01T14:55:27;2.23;;;1.00;;
18142;SDS011;9197;50.930;3.140;2023-04-01T14:58:04;1.90;;;1.20;;
18142;SDS011;9197;50.930;3.140;2023-04-01T15:00:40;2.53;;;1.00;;
18142;SDS011;9197;50.930;3.140;2023-04-01T15:03:11;3.77;;;1.33;;
18142;SDS011;9197;50.930;3.140;2023-04-01T15:05:45;1.10;;;0.83;;
18142;SDS011;9197;50.930;3.140;2023-04-01T15:08:21;3.00;;;1.10;;
18142;SDS011;9197;50.930;3.140;2023-04-01T15:14:09;3.43;;;1.30;;
18142;SDS011;9197;50.930;3.140;2023-04-01T15:16:41;4.90;;;1.10;;
18142;SDS011;9197;50.930;3.140;2023-04-01T15:19:15;3.30;;;1.17;;
18142;SDS011;9197;50.930;3.140;2023-04-01T15:24:37;3.57;;;1.60;;
18142;SDS011;9197;50.930;3.140;2023-04-01T15:27:09;3.97;;;1.33;;
18142;SDS011;9197;50.930;3.140;2023-04-01T15:29:56;2.87;;;1.33;;
18142;SDS011;9197;50.930;3.140;2023-04-01T15:32:32;3.10;;;1.77;;
18142;SDS011;9197;50.930;3.140;2023-04-01T15:35:09;3.90;;;1.73;;
18142;SDS011;9197;50.930;3.140;2023-04-01T15:37:43;6.70;;;1.70;;
18142;SDS011;9197;50.930;3.140;2023-04-01T15:40:17;4.43;;;1.67;;
18142;SDS011;9197;50.930;3.140;2023-04-01T15:42:51;5.97;;;1.80;;
18142;SDS011;9197;50.930;3.140;2023-04-01T15:45:26;3.07;;;1.90;;
18142;SDS011;9197;50.930;3.140;2023-04-01T15:48:01;3.93;;;1.63;;
18142;SDS011;9197;50.930;3.140;2023-04-01T15:50:43;4.50;;;1.97;;
18142;SDS011;9197;50.930;3.140;2023-04-01T15:53:23;6.20;;;2.00;;
18142;SDS011;9197;50.930;3.140;2023-04-01T15:55:54;7.47;;;2.47;;
18142;SDS011;9197;50.930;3.140;2023-04-01T15:58:30;3.77;;;1.93;;
18142;SDS011;9197;50.930;3.140;2023-04-01T16:01:04;9.43;;;2.27;;
18142;SDS011;9197;50.930;3.140;2023-04-01T16:03:37;8.97;;;2.53;;
18142;SDS011;9197;50.930;3.140;2023-04-01T16:06:14;10.00;;;3.53;;
18142;SDS011;9197;50.930;3.140;2023-04-01T16:08:55;5.03;;;1.77;;
18142;SDS011;9197;50.930;3.140;2023-04-01T16:11:27;5.17;;;2.37;;
18142;SDS011;9197;50.930;3.140;2023-04-01T16:13:59;6.10;;;1.90;;
18142;SDS011;9197;50.930;3.140;2023-04-01T16:16:38;4.07;;;1.53;;
18142;SDS011;9197;50.930;3.140;2023-04-01T16:19:27;4.57;;;1.50;;
18142;SDS011;9197;50.930;3.140;2023-04-01T16:21:58;7.70;;;1.40;;
18142;SDS011;9197;50.930;3.140;2023-04-01T16:24:30;5.47;;;1.83;;
18142;SDS011;9197;50.930;3.140;2023-04-01T16:27:02;4.77;;;1.67;;
18142;SDS011;9197;50.930;3.140;2023-04-01T16:29:33;3.47;;;1.50;;
18142;SDS011;9197;50.930;3.140;2023-04-01T16:32:07;7.63;;;1.33;;
18142;SDS011;9197;50.930;3.140;2023-04-01T16:34:38;5.27;;;1.80;;
18142;SDS011;9197;50.930;3.140;2023-04-01T16:37:07;4.30;;;1.33;;
18142;SDS011;9197;50.930;3.140;2023-04-01T16:39:41;2.17;;;1.33;;
18142;SDS011;9197;50.930;3.140;2023-04-01T16:42:19;3.80;;;2.23;;